»·PEaware :: N401DR KBNG-KSZP

N401DR :: KBNG-KSZP

FLIGHT INFORMATION

Flight Status: Arrived
Operator: Privately registered:
United States
More flights under this callsign
Pilot: Gabor H. (24209)
Aircraft: ROBIN DR-400
(DR40)
More flights by this aircraft type
Origin: KBNG Banning Mun
United States
Destination: KSZP Santa Paula
United States
More flights between these airports :: More routes between these airports
Route: 10 210 5 126
File this flight plan on PilotEdge
Remarks:
Altitude:
(Current/Filed)
6,500ft
Speed:
(Current/Filed)
110kts
Departed: 27-Sep-20 01:23 PM
Arrived: 27-Sep-20 02:18 PM
Distance/Time
Traveled:
113nm/0:55
Distance/Time
To Go:
Arrived

Flight Plot

Page will automatically refresh every two minutes.

Flight plan parsing failed; only flown route is shown


Map Options




Map Legend


Flown Route
Filed Route
Departure Airport
Arrival Airport
Navaid (VOR, NDB)
Fix

Horizontal Profiles

Position Reports

Time Latitude Longitude Heading Altitude Ground
Speed
27-Sep-20 13:12 33.920668 -116.856790 270 2204ft 0kts
27-Sep-20 13:13 33.920668 -116.856790 270 2204ft 0kts
27-Sep-20 13:14 33.920668 -116.856790 270 2204ft 0kts
27-Sep-20 13:15 33.920668 -116.856790 270 2204ft 0kts
27-Sep-20 13:16 33.920668 -116.856790 270 2204ft 0kts
27-Sep-20 13:17 33.920667 -116.856878 269 2204ft 3kts
27-Sep-20 13:18 33.921035 -116.858065 5 2213ft 5kts
27-Sep-20 13:19 33.922029 -116.855192 89 2206ft 17kts
27-Sep-20 13:20 33.922002 -116.847912 88 2147ft 20kts
27-Sep-20 13:21 33.922473 -116.843683 268 2105ft 40kts
27-Sep-20 13:22 33.922424 -116.867085 270 3095ft 76kts
27-Sep-20 13:23 33.922955 -116.892901 272 4291ft 79kts
27-Sep-20 13:24 33.923451 -116.919934 274 5470ft 83kts
27-Sep-20 13:25 33.925990 -116.948324 287 6499ft 98kts
27-Sep-20 13:26 33.938238 -116.983050 300 6521ft 118kts
27-Sep-20 13:27 33.953847 -117.018203 302 6525ft 119kts
27-Sep-20 13:28 33.970229 -117.053186 301 6529ft 120kts
27-Sep-20 13:29 33.989967 -117.088442 301 6536ft 131kts
27-Sep-20 13:30 34.011152 -117.124750 301 6537ft 132kts
27-Sep-20 13:31 34.030737 -117.162170 296 6537ft 132kts
27-Sep-20 13:32 34.046126 -117.202423 285 6536ft 131kts
27-Sep-20 13:33 34.056736 -117.244488 279 6536ft 131kts
27-Sep-20 13:34 34.065096 -117.287505 279 6536ft 131kts
27-Sep-20 13:36 34.073392 -117.330476 279 6537ft 131kts
27-Sep-20 13:37 34.081685 -117.373643 279 6537ft 131kts
27-Sep-20 13:38 34.089814 -117.416718 278 6536ft 131kts
27-Sep-20 13:39 34.097556 -117.460086 278 6534ft 131kts
27-Sep-20 13:40 34.103597 -117.503454 275 6531ft 131kts
27-Sep-20 13:41 34.109569 -117.546874 275 6530ft 131kts
27-Sep-20 13:42 34.115615 -117.590460 275 6529ft 131kts
27-Sep-20 13:43 34.121721 -117.634149 275 6532ft 131kts
27-Sep-20 13:44 34.127484 -117.677792 271 6536ft 130kts
27-Sep-20 13:45 34.131211 -117.721677 271 6541ft 130kts
27-Sep-20 13:46 34.134939 -117.765304 271 6545ft 130kts
27-Sep-20 13:47 34.138670 -117.808774 271 6550ft 129kts
27-Sep-20 13:48 34.142411 -117.852247 271 6553ft 129kts
27-Sep-20 13:49 34.146123 -117.895812 271 6550ft 131kts
27-Sep-20 13:50 34.149778 -117.939883 271 6546ft 132kts
27-Sep-20 13:51 34.153316 -117.984319 271 6543ft 133kts
27-Sep-20 13:52 34.157393 -118.029156 278 6539ft 135kts
27-Sep-20 13:52 34.163660 -118.066417 278 6537ft 136kts
27-Sep-20 13:54 34.173768 -118.118565 284 6533ft 137kts
27-Sep-20 13:55 34.184751 -118.162699 287 6530ft 137kts
27-Sep-20 13:55 34.195026 -118.199062 289 6528ft 136kts
27-Sep-20 13:56 34.207064 -118.242423 289 6525ft 135kts
27-Sep-20 13:58 34.220478 -118.292520 289 6521ft 133kts
27-Sep-20 13:58 34.229792 -118.328005 289 6518ft 132kts
27-Sep-20 13:59 34.239138 -118.370995 286 6518ft 131kts
27-Sep-20 14:00 34.247371 -118.414281 284 6520ft 132kts
27-Sep-20 14:01 34.255506 -118.457658 284 6523ft 132kts
27-Sep-20 14:02 34.263714 -118.501176 285 6525ft 132kts
27-Sep-20 14:03 34.271999 -118.544833 285 6527ft 133kts
27-Sep-20 14:04 34.280538 -118.588437 287 6530ft 133kts
27-Sep-20 14:05 34.290096 -118.631951 287 6530ft 133kts
27-Sep-20 14:06 34.302933 -118.673365 286 6531ft 132kts
27-Sep-20 14:07 34.316354 -118.716793 286 6219ft 144kts
27-Sep-20 14:08 34.330702 -118.763257 286 5517ft 148kts
27-Sep-20 14:09 34.345360 -118.809666 286 4791ft 145kts
27-Sep-20 14:10 34.362625 -118.851662 300 3900ft 130kts
27-Sep-20 14:11 34.382908 -118.886077 300 2891ft 123kts
27-Sep-20 14:12 34.388541 -118.924686 266 1880ft 116kts
27-Sep-20 14:13 34.386848 -118.961833 252 1308ft 101kts
27-Sep-20 14:14 34.379514 -118.994411 251 1311ft 99kts
27-Sep-20 14:15 34.367389 -119.024480 235 1133ft 104kts
27-Sep-20 14:16 34.352229 -119.051579 236 461ft 79kts
27-Sep-20 14:17 34.347914 -119.061321 48 253ft 6kts
27-Sep-20 14:18 34.348173 -119.060807 153 253ft 0kts

Navigation Log

Ident Type
Flight plan parsing failed, navigation log unavailable